sensor_id;sensor_type;location;lat;lon;timestamp;temperature;humidity
61004;DHT22;46889;37.310;13.582;2023-11-19T00:00:27;14.00;99.90
61004;DHT22;46889;37.310;13.582;2023-11-19T00:02:53;14.00;99.90
61004;DHT22;46889;37.310;13.582;2023-11-19T00:05:19;14.00;99.90
61004;DHT22;46889;37.310;13.582;2023-11-19T00:07:46;14.00;99.90
61004;DHT22;46889;37.310;13.582;2023-11-19T00:10:13;14.00;99.90
61004;DHT22;46889;37.310;13.582;2023-11-19T00:12:43;14.00;99.90
61004;DHT22;46889;37.310;13.582;2023-11-19T00:15:09;14.00;99.90
61004;DHT22;46889;37.310;13.582;2023-11-19T00:17:37;14.00;99.90
61004;DHT22;46889;37.310;13.582;2023-11-19T00:20:06;14.00;99.90
61004;DHT22;46889;37.310;13.582;2023-11-19T00:22:32;13.90;99.90
61004;DHT22;46889;37.310;13.582;2023-11-19T00:24:58;14.00;99.90
61004;DHT22;46889;37.310;13.582;2023-11-19T00:27:25;13.90;99.90
61004;DHT22;46889;37.310;13.582;2023-11-19T00:29:51;13.90;99.90
61004;DHT22;46889;37.310;13.582;2023-11-19T00:32:17;14.00;99.90
61004;DHT22;46889;37.310;13.582;2023-11-19T00:34:44;14.00;99.90
61004;DHT22;46889;37.310;13.582;2023-11-19T00:37:10;13.90;99.90
61004;DHT22;46889;37.310;13.582;2023-11-19T00:39:36;13.90;99.90
61004;DHT22;46889;37.310;13.582;2023-11-19T00:42:03;13.90;99.90
61004;DHT22;46889;37.310;13.582;2023-11-19T00:44:30;13.90;99.90
61004;DHT22;46889;37.310;13.582;2023-11-19T00:46:56;13.80;99.90
61004;DHT22;46889;37.310;13.582;2023-11-19T00:49:22;13.80;99.90
61004;DHT22;46889;37.310;13.582;2023-11-19T00:51:48;13.80;99.90
61004;DHT22;46889;37.310;13.582;2023-11-19T00:54:14;13.80;99.90
61004;DHT22;46889;37.310;13.582;2023-11-19T00:56:40;13.80;99.90
61004;DHT22;46889;37.310;13.582;2023-11-19T00:59:06;13.90;99.90
61004;DHT22;46889;37.310;13.582;2023-11-19T01:01:33;13.90;99.90
61004;DHT22;46889;37.310;13.582;2023-11-19T01:04:00;13.90;99.90
61004;DHT22;46889;37.310;13.582;2023-11-19T01:06:29;13.90;99.90
61004;DHT22;46889;37.310;13.582;2023-11-19T01:08:55;13.90;99.90
61004;DHT22;46889;37.310;13.582;2023-11-19T01:11:22;13.90;99.90
61004;DHT22;46889;37.310;13.582;2023-11-19T01:13:49;14.00;99.90
61004;DHT22;46889;37.310;13.582;2023-11-19T01:16:15;14.00;99.90
61004;DHT22;46889;37.310;13.582;2023-11-19T01:18:42;14.00;99.90
61004;DHT22;46889;37.310;13.582;2023-11-19T01:21:08;14.00;99.90
61004;DHT22;46889;37.310;13.582;2023-11-19T01:23:34;14.00;99.90
61004;DHT22;46889;37.310;13.582;2023-11-19T01:26:00;14.00;99.90
61004;DHT22;46889;37.310;13.582;2023-11-19T01:28:26;13.90;99.90
61004;DHT22;46889;37.310;13.582;2023-11-19T01:30:52;14.00;99.90
61004;DHT22;46889;37.310;13.582;2023-11-19T01:33:18;14.00;99.90
61004;DHT22;46889;37.310;13.582;2023-11-19T01:35:45;14.00;99.90
61004;DHT22;46889;37.310;13.582;2023-11-19T01:38:12;14.00;99.90
61004;DHT22;46889;37.310;13.582;2023-11-19T01:40:39;14.00;99.90
61004;DHT22;46889;37.310;13.582;2023-11-19T01:43:04;14.10;99.90
61004;DHT22;46889;37.310;13.582;2023-11-19T01:45:32;14.10;99.90
61004;DHT22;46889;37.310;13.582;2023-11-19T01:48:00;14.00;99.90
61004;DHT22;46889;37.310;13.582;2023-11-19T01:50:26;14.00;99.90
61004;DHT22;46889;37.310;13.582;2023-11-19T01:52:52;13.90;99.90
61004;DHT22;46889;37.310;13.582;2023-11-19T01:55:19;13.90;99.90
61004;DHT22;46889;37.310;13.582;2023-11-19T01:57:45;13.80;99.90
61004;DHT22;46889;37.310;13.582;2023-11-19T02:00:12;13.80;99.90
61004;DHT22;46889;37.310;13.582;2023-11-19T02:02:39;13.80;99.90
61004;DHT22;46889;37.310;13.582;2023-11-19T02:05:05;13.80;99.90
61004;DHT22;46889;37.310;13.582;2023-11-19T02:07:32;14.00;99.90
61004;DHT22;46889;37.310;13.582;2023-11-19T02:09:58;13.90;99.90
61004;DHT22;46889;37.310;13.582;2023-11-19T02:12:26;13.80;99.90
61004;DHT22;46889;37.310;13.582;2023-11-19T02:15:15;13.90;99.90
61004;DHT22;46889;37.310;13.582;2023-11-19T02:17:44;13.90;99.90
61004;DHT22;46889;37.310;13.582;2023-11-19T02:20:10;13.90;99.90
61004;DHT22;46889;37.310;13.582;2023-11-19T02:22:38;13.90;99.90
61004;DHT22;46889;37.310;13.582;2023-11-19T02:25:06;14.00;99.90
61004;DHT22;46889;37.310;13.582;2023-11-19T02:27:53;14.00;99.90
61004;DHT22;46889;37.310;13.582;2023-11-19T02:30:21;14.00;99.90
61004;DHT22;46889;37.310;13.582;2023-11-19T02:32:55;14.00;99.90
61004;DHT22;46889;37.310;13.582;2023-11-19T02:35:23;14.00;99.90
61004;DHT22;46889;37.310;13.582;2023-11-19T02:37:49;14.10;99.90
61004;DHT22;46889;37.310;13.582;2023-11-19T02:40:15;14.00;99.90
61004;DHT22;46889;37.310;13.582;2023-11-19T02:42:42;14.10;99.90
61004;DHT22;46889;37.310;13.582;2023-11-19T02:45:09;14.10;99.90
61004;DHT22;46889;37.310;13.582;2023-11-19T02:47:43;14.10;99.90
61004;DHT22;46889;37.310;13.582;2023-11-19T02:50:10;14.00;99.90
61004;DHT22;46889;37.310;13.582;2023-11-19T02:52:43;14.00;99.90
61004;DHT22;46889;37.310;13.582;2023-11-19T02:55:10;13.90;99.90
61004;DHT22;46889;37.310;13.582;2023-11-19T02:57:40;13.90;99.90
61004;DHT22;46889;37.310;13.582;2023-11-19T03:00:18;13.90;99.90
61004;DHT22;46889;37.310;13.582;2023-11-19T03:02:44;13.90;99.90
61004;DHT22;46889;37.310;13.582;2023-11-19T03:05:19;13.90;99.90
61004;DHT22;46889;37.310;13.582;2023-11-19T03:07:45;13.90;99.90
61004;DHT22;46889;37.310;13.582;2023-11-19T03:10:11;13.90;99.90
61004;DHT22;46889;37.310;13.582;2023-11-19T03:12:40;14.00;99.90
61004;DHT22;46889;37.310;13.582;2023-11-19T03:15:07;14.00;99.90
61004;DHT22;46889;37.310;13.582;2023-11-19T03:17:41;14.00;99.90
61004;DHT22;46889;37.310;13.582;2023-11-19T03:20:11;14.00;99.90
61004;DHT22;46889;37.310;13.582;2023-11-19T03:22:40;14.00;99.90
61004;DHT22;46889;37.310;13.582;2023-11-19T03:25:09;13.90;99.90
61004;DHT22;46889;37.310;13.582;2023-11-19T03:27:36;13.90;99.90
61004;DHT22;46889;37.310;13.582;2023-11-19T03:30:02;13.90;99.90
61004;DHT22;46889;37.310;13.582;2023-11-19T03:32:30;13.90;99.90
61004;DHT22;46889;37.310;13.582;2023-11-19T03:34:57;13.90;99.90
61004;DHT22;46889;37.310;13.582;2023-11-19T03:37:23;14.00;99.90
61004;DHT22;46889;37.310;13.582;2023-11-19T03:39:49;14.00;99.90
61004;DHT22;46889;37.310;13.582;2023-11-19T03:42:15;14.00;99.90
61004;DHT22;46889;37.310;13.582;2023-11-19T03:44:41;14.10;99.90
61004;DHT22;46889;37.310;13.582;2023-11-19T03:47:06;14.00;99.90
61004;DHT22;46889;37.310;13.582;2023-11-19T03:49:32;14.00;99.90
61004;DHT22;46889;37.310;13.582;2023-11-19T03:51:58;14.00;99.90
61004;DHT22;46889;37.310;13.582;2023-11-19T03:54:24;14.00;99.90
61004;DHT22;46889;37.310;13.582;2023-11-19T03:56:50;14.00;99.90
61004;DHT22;46889;37.310;13.582;2023-11-19T03:59:16;14.00;99.90
61004;DHT22;46889;37.310;13.582;2023-11-19T04:01:42;14.00;99.90
61004;DHT22;46889;37.310;13.582;2023-11-19T04:04:08;14.00;99.90
61004;DHT22;46889;37.310;13.582;2023-11-19T04:06:34;14.10;99.90
61004;DHT22;46889;37.310;13.582;2023-11-19T04:08:59;14.10;99.90
61004;DHT22;46889;37.310;13.582;2023-11-19T04:11:25;14.20;99.90
61004;DHT22;46889;37.310;13.582;2023-11-19T04:13:52;14.20;99.90
61004;DHT22;46889;37.310;13.582;2023-11-19T04:16:18;14.20;99.90
61004;DHT22;46889;37.310;13.582;2023-11-19T04:18:45;14.20;99.90
61004;DHT22;46889;37.310;13.582;2023-11-19T04:21:12;14.20;99.90
61004;DHT22;46889;37.310;13.582;2023-11-19T04:23:38;14.20;99.90
61004;DHT22;46889;37.310;13.582;2023-11-19T04:26:04;14.20;99.90
61004;DHT22;46889;37.310;13.582;2023-11-19T04:28:32;14.20;99.90
61004;DHT22;46889;37.310;13.582;2023-11-19T04:31:01;14.10;99.90
61004;DHT22;46889;37.310;13.582;2023-11-19T04:33:28;14.10;99.90
61004;DHT22;46889;37.310;13.582;2023-11-19T04:35:54;14.10;99.90
61004;DHT22;46889;37.310;13.582;2023-11-19T04:38:21;14.00;99.90
61004;DHT22;46889;37.310;13.582;2023-11-19T04:40:47;14.00;99.90
61004;DHT22;46889;37.310;13.582;2023-11-19T04:43:12;14.00;99.90
61004;DHT22;46889;37.310;13.582;2023-11-19T04:45:38;14.00;99.90
61004;DHT22;46889;37.310;13.582;2023-11-19T04:48:05;13.90;99.90
61004;DHT22;46889;37.310;13.582;2023-11-19T04:50:31;14.00;99.90
61004;DHT22;46889;37.310;13.582;2023-11-19T04:52:57;14.00;99.90
61004;DHT22;46889;37.310;13.582;2023-11-19T04:55:22;14.00;99.90
61004;DHT22;46889;37.310;13.582;2023-11-19T04:57:48;14.00;99.90
61004;DHT22;46889;37.310;13.582;2023-11-19T05:00:15;14.00;99.90
61004;DHT22;46889;37.310;13.582;2023-11-19T05:02:40;14.10;99.90
61004;DHT22;46889;37.310;13.582;2023-11-19T05:05:06;14.10;99.90
61004;DHT22;46889;37.310;13.582;2023-11-19T05:07:34;14.10;99.90
61004;DHT22;46889;37.310;13.582;2023-11-19T05:10:00;14.10;99.90
61004;DHT22;46889;37.310;13.582;2023-11-19T05:12:26;14.10;99.90
61004;DHT22;46889;37.310;13.582;2023-11-19T05:14:52;14.10;99.90
61004;DHT22;46889;37.310;13.582;2023-11-19T05:17:17;14.20;99.90
61004;DHT22;46889;37.310;13.582;2023-11-19T05:19:47;14.10;99.90
61004;DHT22;46889;37.310;13.582;2023-11-19T05:22:13;14.10;99.90
61004;DHT22;46889;37.310;13.582;2023-11-19T05:24:40;14.10;99.90
61004;DHT22;46889;37.310;13.582;2023-11-19T05:27:06;14.10;99.90
61004;DHT22;46889;37.310;13.582;2023-11-19T05:29:35;14.00;99.90
61004;DHT22;46889;37.310;13.582;2023-11-19T05:32:07;14.10;99.90
61004;DHT22;46889;37.310;13.582;2023-11-19T05:34:33;14.10;99.90
61004;DHT22;46889;37.310;13.582;2023-11-19T05:36:59;14.10;99.90
61004;DHT22;46889;37.310;13.582;2023-11-19T05:39:25;14.10;99.90
61004;DHT22;46889;37.310;13.582;2023-11-19T05:41:51;14.20;99.90
61004;DHT22;46889;37.310;13.582;2023-11-19T05:44:17;14.10;99.90
61004;DHT22;46889;37.310;13.582;2023-11-19T05:46:43;14.20;99.90
61004;DHT22;46889;37.310;13.582;2023-11-19T05:49:10;14.20;99.90
61004;DHT22;46889;37.310;13.582;2023-11-19T05:51:36;14.20;99.90
61004;DHT22;46889;37.310;13.582;2023-11-19T05:54:02;14.20;99.90
61004;DHT22;46889;37.310;13.582;2023-11-19T05:56:28;14.20;99.90
61004;DHT22;46889;37.310;13.582;2023-11-19T05:58:58;14.20;99.90
61004;DHT22;46889;37.310;13.582;2023-11-19T06:01:26;14.30;99.90
61004;DHT22;46889;37.310;13.582;2023-11-19T06:03:52;14.30;99.90
61004;DHT22;46889;37.310;13.582;2023-11-19T06:06:18;14.40;99.90
61004;DHT22;46889;37.310;13.582;2023-11-19T06:08:44;14.60;99.90
61004;DHT22;46889;37.310;13.582;2023-11-19T06:11:10;15.10;99.90
61004;DHT22;46889;37.310;13.582;2023-11-19T06:13:40;15.70;99.90
61004;DHT22;46889;37.310;13.582;2023-11-19T06:16:06;16.40;99.90
61004;DHT22;46889;37.310;13.582;2023-11-19T06:18:33;17.10;99.90
61004;DHT22;46889;37.310;13.582;2023-11-19T06:20:58;17.80;99.90
61004;DHT22;46889;37.310;13.582;2023-11-19T06:23:24;18.30;99.90
61004;DHT22;46889;37.310;13.582;2023-11-19T06:25:53;18.90;99.90
61004;DHT22;46889;37.310;13.582;2023-11-19T06:28:20;19.50;99.90
61004;DHT22;46889;37.310;13.582;2023-11-19T06:30:46;20.30;99.90
61004;DHT22;46889;37.310;13.582;2023-11-19T06:33:12;21.30;99.90
61004;DHT22;46889;37.310;13.582;2023-11-19T06:35:38;22.20;99.90
61004;DHT22;46889;37.310;13.582;2023-11-19T06:38:04;22.90;99.90
61004;DHT22;46889;37.310;13.582;2023-11-19T06:40:30;22.90;99.90
61004;DHT22;46889;37.310;13.582;2023-11-19T06:42:56;23.20;99.90
61004;DHT22;46889;37.310;13.582;2023-11-19T06:45:22;23.40;99.90
61004;DHT22;46889;37.310;13.582;2023-11-19T06:47:48;23.90;99.90
61004;DHT22;46889;37.310;13.582;2023-11-19T06:50:14;24.10;99.90
61004;DHT22;46889;37.310;13.582;2023-11-19T06:52:40;23.90;99.90
61004;DHT22;46889;37.310;13.582;2023-11-19T06:55:06;23.40;99.90
61004;DHT22;46889;37.310;13.582;2023-11-19T06:57:32;23.40;99.90
61004;DHT22;46889;37.310;13.582;2023-11-19T06:59:58;23.90;99.90
61004;DHT22;46889;37.310;13.582;2023-11-19T07:02:24;24.40;99.90
61004;DHT22;46889;37.310;13.582;2023-11-19T07:04:51;24.00;99.90
61004;DHT22;46889;37.310;13.582;2023-11-19T07:07:16;23.10;99.90
61004;DHT22;46889;37.310;13.582;2023-11-19T07:09:43;22.60;99.90
61004;DHT22;46889;37.310;13.582;2023-11-19T07:12:09;22.70;99.90
61004;DHT22;46889;37.310;13.582;2023-11-19T07:14:34;23.20;99.90
61004;DHT22;46889;37.310;13.582;2023-11-19T07:17:02;23.10;99.90
61004;DHT22;46889;37.310;13.582;2023-11-19T07:19:27;22.30;99.90
61004;DHT22;46889;37.310;13.582;2023-11-19T07:21:54;22.00;99.90
61004;DHT22;46889;37.310;13.582;2023-11-19T07:24:20;22.70;99.90
61004;DHT22;46889;37.310;13.582;2023-11-19T07:26:47;22.70;99.90
61004;DHT22;46889;37.310;13.582;2023-11-19T07:29:13;21.90;99.90
61004;DHT22;46889;37.310;13.582;2023-11-19T07:31:39;21.20;99.90
61004;DHT22;46889;37.310;13.582;2023-11-19T07:34:05;20.60;99.90
61004;DHT22;46889;37.310;13.582;2023-11-19T07:36:32;20.00;99.90
61004;DHT22;46889;37.310;13.582;2023-11-19T07:38:58;19.50;99.90
61004;DHT22;46889;37.310;13.582;2023-11-19T07:41:24;19.20;99.90
61004;DHT22;46889;37.310;13.582;2023-11-19T07:43:50;19.00;99.90
61004;DHT22;46889;37.310;13.582;2023-11-19T07:46:17;19.10;99.90
61004;DHT22;46889;37.310;13.582;2023-11-19T07:48:45;19.00;99.90
61004;DHT22;46889;37.310;13.582;2023-11-19T07:51:12;19.00;99.90
61004;DHT22;46889;37.310;13.582;2023-11-19T07:53:39;18.90;99.90
61004;DHT22;46889;37.310;13.582;2023-11-19T07:56:06;18.70;99.90
61004;DHT22;46889;37.310;13.582;2023-11-19T07:58:32;18.60;99.90
61004;DHT22;46889;37.310;13.582;2023-11-19T08:00:58;18.60;99.90
61004;DHT22;46889;37.310;13.582;2023-11-19T08:03:24;18.40;99.90
61004;DHT22;46889;37.310;13.582;2023-11-19T08:05:50;18.20;99.90
61004;DHT22;46889;37.310;13.582;2023-11-19T08:08:16;17.90;99.90
61004;DHT22;46889;37.310;13.582;2023-11-19T08:10:42;17.80;99.90
61004;DHT22;46889;37.310;13.582;2023-11-19T08:13:10;17.60;99.90
61004;DHT22;46889;37.310;13.582;2023-11-19T08:15:36;17.60;99.90
61004;DHT22;46889;37.310;13.582;2023-11-19T08:18:02;17.60;99.90
61004;DHT22;46889;37.310;13.582;2023-11-19T08:20:28;17.70;99.90
61004;DHT22;46889;37.310;13.582;2023-11-19T08:22:54;17.80;99.90
61004;DHT22;46889;37.310;13.582;2023-11-19T08:25:20;17.90;99.90
61004;DHT22;46889;37.310;13.582;2023-11-19T08:27:45;17.90;99.90
61004;DHT22;46889;37.310;13.582;2023-11-19T08:30:12;18.00;99.90
61004;DHT22;46889;37.310;13.582;2023-11-19T08:32:38;17.90;99.90
61004;DHT22;46889;37.310;13.582;2023-11-19T08:35:04;17.90;99.90
61004;DHT22;46889;37.310;13.582;2023-11-19T08:37:30;18.10;99.90
61004;DHT22;46889;37.310;13.582;2023-11-19T08:39:56;18.30;99.90
61004;DHT22;46889;37.310;13.582;2023-11-19T08:42:22;18.60;99.90
61004;DHT22;46889;37.310;13.582;2023-11-19T08:44:51;18.90;99.90
61004;DHT22;46889;37.310;13.582;2023-11-19T08:47:19;19.10;99.90
61004;DHT22;46889;37.310;13.582;2023-11-19T08:49:46;19.10;99.90
61004;DHT22;46889;37.310;13.582;2023-11-19T08:52:12;19.20;99.90
61004;DHT22;46889;37.310;13.582;2023-11-19T08:54:37;19.50;99.90
61004;DHT22;46889;37.310;13.582;2023-11-19T08:57:03;19.70;99.90
61004;DHT22;46889;37.310;13.582;2023-11-19T08:59:29;19.80;99.90
61004;DHT22;46889;37.310;13.582;2023-11-19T09:01:55;19.90;99.90
61004;DHT22;46889;37.310;13.582;2023-11-19T09:04:21;20.10;99.90
61004;DHT22;46889;37.310;13.582;2023-11-19T09:06:50;20.20;99.90
61004;DHT22;46889;37.310;13.582;2023-11-19T09:09:16;20.30;99.90
61004;DHT22;46889;37.310;13.582;2023-11-19T09:11:41;20.60;99.90
61004;DHT22;46889;37.310;13.582;2023-11-19T09:14:07;20.70;99.90
61004;DHT22;46889;37.310;13.582;2023-11-19T09:16:33;20.70;99.90
61004;DHT22;46889;37.310;13.582;2023-11-19T09:18:59;20.70;99.90
61004;DHT22;46889;37.310;13.582;2023-11-19T09:21:28;20.70;99.90
61004;DHT22;46889;37.310;13.582;2023-11-19T09:23:57;20.70;99.90
61004;DHT22;46889;37.310;13.582;2023-11-19T09:26:23;20.50;99.90
61004;DHT22;46889;37.310;13.582;2023-11-19T09:28:49;20.30;99.90
61004;DHT22;46889;37.310;13.582;2023-11-19T09:31:15;20.20;99.90
61004;DHT22;46889;37.310;13.582;2023-11-19T09:33:43;20.30;99.90
61004;DHT22;46889;37.310;13.582;2023-11-19T09:36:09;20.50;99.90
61004;DHT22;46889;37.310;13.582;2023-11-19T09:38:36;20.50;99.90
61004;DHT22;46889;37.310;13.582;2023-11-19T09:41:05;20.60;99.90
61004;DHT22;46889;37.310;13.582;2023-11-19T09:43:35;21.00;99.90
61004;DHT22;46889;37.310;13.582;2023-11-19T09:46:07;21.00;99.90
61004;DHT22;46889;37.310;13.582;2023-11-19T09:48:37;21.10;99.90
61004;DHT22;46889;37.310;13.582;2023-11-19T09:51:06;21.20;99.90
61004;DHT22;46889;37.310;13.582;2023-11-19T09:53:32;21.30;99.90
61004;DHT22;46889;37.310;13.582;2023-11-19T09:56:01;21.30;99.90
61004;DHT22;46889;37.310;13.582;2023-11-19T09:58:31;21.30;99.90
61004;DHT22;46889;37.310;13.582;2023-11-19T10:01:01;21.30;99.90
61004;DHT22;46889;37.310;13.582;2023-11-19T10:03:33;21.40;99.90
61004;DHT22;46889;37.310;13.582;2023-11-19T10:06:09;21.40;99.90
61004;DHT22;46889;37.310;13.582;2023-11-19T10:08:38;21.30;99.90
61004;DHT22;46889;37.310;13.582;2023-11-19T10:11:07;21.20;99.90
61004;DHT22;46889;37.310;13.582;2023-11-19T10:13:34;21.20;99.90
61004;DHT22;46889;37.310;13.582;2023-11-19T10:16:09;21.20;99.90
61004;DHT22;46889;37.310;13.582;2023-11-19T10:18:37;21.30;99.90
61004;DHT22;46889;37.310;13.582;2023-11-19T10:21:04;21.40;99.90
61004;DHT22;46889;37.310;13.582;2023-11-19T10:23:30;21.50;99.90
61004;DHT22;46889;37.310;13.582;2023-11-19T10:26:01;21.70;99.90
61004;DHT22;46889;37.310;13.582;2023-11-19T10:28:33;21.80;99.90
61004;DHT22;46889;37.310;13.582;2023-11-19T10:31:04;21.70;99.90
61004;DHT22;46889;37.310;13.582;2023-11-19T10:33:30;21.70;99.90
61004;DHT22;46889;37.310;13.582;2023-11-19T10:35:57;21.70;99.90
61004;DHT22;46889;37.310;13.582;2023-11-19T10:38:23;21.80;99.90
61004;DHT22;46889;37.310;13.582;2023-11-19T10:40:50;21.90;99.90
61004;DHT22;46889;37.310;13.582;2023-11-19T10:43:19;21.90;99.90
61004;DHT22;46889;37.310;13.582;2023-11-19T10:45:45;21.90;99.90
61004;DHT22;46889;37.310;13.582;2023-11-19T10:48:11;22.00;99.90
61004;DHT22;46889;37.310;13.582;2023-11-19T10:50:38;21.30;99.90
61004;DHT22;46889;37.310;13.582;2023-11-19T10:53:05;21.40;99.90
61004;DHT22;46889;37.310;13.582;2023-11-19T10:55:34;21.40;99.90
61004;DHT22;46889;37.310;13.582;2023-11-19T10:58:01;21.60;99.90
61004;DHT22;46889;37.310;13.582;2023-11-19T11:00:39;21.50;99.90
61004;DHT22;46889;37.310;13.582;2023-11-19T11:03:09;21.50;99.90
61004;DHT22;46889;37.310;13.582;2023-11-19T11:05:36;21.20;99.90
61004;DHT22;46889;37.310;13.582;2023-11-19T11:08:04;21.30;99.90
61004;DHT22;46889;37.310;13.582;2023-11-19T11:10:31;21.50;99.90
61004;DHT22;46889;37.310;13.582;2023-11-19T11:12:59;21.70;99.90
61004;DHT22;46889;37.310;13.582;2023-11-19T11:15:28;21.90;99.90
61004;DHT22;46889;37.310;13.582;2023-11-19T11:17:59;22.00;99.90
61004;DHT22;46889;37.310;13.582;2023-11-19T11:20:28;22.10;99.90
61004;DHT22;46889;37.310;13.582;2023-11-19T11:23:18;22.20;99.90
61004;DHT22;46889;37.310;13.582;2023-11-19T11:26:00;21.80;99.90
61004;DHT22;46889;37.310;13.582;2023-11-19T11:31:08;21.70;99.90
61004;DHT22;46889;37.310;13.582;2023-11-19T11:36:20;21.90;99.90
61004;DHT22;46889;37.310;13.582;2023-11-19T11:38:47;21.90;99.90
61004;DHT22;46889;37.310;13.582;2023-11-19T11:41:20;21.90;99.90
61004;DHT22;46889;37.310;13.582;2023-11-19T11:43:47;22.10;99.90
61004;DHT22;46889;37.310;13.582;2023-11-19T11:46:57;22.10;99.90
61004;DHT22;46889;37.310;13.582;2023-11-19T11:49:05;22.10;99.90
61004;DHT22;46889;37.310;13.582;2023-11-19T11:54:10;22.20;99.90
61004;DHT22;46889;37.310;13.582;2023-11-19T11:56:39;22.10;99.90
61004;DHT22;46889;37.310;13.582;2023-11-19T11:59:08;22.10;99.90
61004;DHT22;46889;37.310;13.582;2023-11-19T12:01:35;22.10;99.90
61004;DHT22;46889;37.310;13.582;2023-11-19T12:04:01;22.10;99.90
61004;DHT22;46889;37.310;13.582;2023-11-19T12:06:27;22.20;99.90
61004;DHT22;46889;37.310;13.582;2023-11-19T12:08:59;22.30;99.90
61004;DHT22;46889;37.310;13.582;2023-11-19T12:11:24;22.20;99.90
61004;DHT22;46889;37.310;13.582;2023-11-19T12:13:53;21.90;99.90
61004;DHT22;46889;37.310;13.582;2023-11-19T12:16:21;21.80;99.90
61004;DHT22;46889;37.310;13.582;2023-11-19T12:18:47;22.00;99.90
61004;DHT22;46889;37.310;13.582;2023-11-19T12:21:27;21.90;99.90
61004;DHT22;46889;37.310;13.582;2023-11-19T12:23:53;22.00;99.90
61004;DHT22;46889;37.310;13.582;2023-11-19T12:26:31;22.00;99.90
61004;DHT22;46889;37.310;13.582;2023-11-19T12:28:58;22.00;99.90
61004;DHT22;46889;37.310;13.582;2023-11-19T12:31:24;21.90;99.90
61004;DHT22;46889;37.310;13.582;2023-11-19T12:33:50;21.60;99.90
61004;DHT22;46889;37.310;13.582;2023-11-19T12:36:16;21.70;99.90
61004;DHT22;46889;37.310;13.582;2023-11-19T12:38:43;21.80;99.90
61004;DHT22;46889;37.310;13.582;2023-11-19T12:41:11;21.90;99.90
61004;DHT22;46889;37.310;13.582;2023-11-19T12:43:38;21.90;99.90
61004;DHT22;46889;37.310;13.582;2023-11-19T12:46:16;21.70;99.90
61004;DHT22;46889;37.310;13.582;2023-11-19T12:48:42;21.90;99.90
61004;DHT22;46889;37.310;13.582;2023-11-19T12:51:08;21.90;99.90
61004;DHT22;46889;37.310;13.582;2023-11-19T12:53:46;22.00;99.90
61004;DHT22;46889;37.310;13.582;2023-11-19T12:56:13;22.00;99.90
61004;DHT22;46889;37.310;13.582;2023-11-19T12:58:39;22.00;99.90
61004;DHT22;46889;37.310;13.582;2023-11-19T13:01:06;21.90;99.90
61004;DHT22;46889;37.310;13.582;2023-11-19T13:03:38;22.10;99.90
61004;DHT22;46889;37.310;13.582;2023-11-19T13:06:08;22.20;99.90
61004;DHT22;46889;37.310;13.582;2023-11-19T13:11:03;22.10;99.90
61004;DHT22;46889;37.310;13.582;2023-11-19T13:13:29;21.90;99.90
61004;DHT22;46889;37.310;13.582;2023-11-19T13:16:03;21.90;99.90
61004;DHT22;46889;37.310;13.582;2023-11-19T13:18:32;21.80;99.90
61004;DHT22;46889;37.310;13.582;2023-11-19T13:20:58;21.70;99.90
61004;DHT22;46889;37.310;13.582;2023-11-19T13:23:24;21.60;99.90
61004;DHT22;46889;37.310;13.582;2023-11-19T13:25:50;21.60;99.90
61004;DHT22;46889;37.310;13.582;2023-11-19T13:28:16;21.50;99.90
61004;DHT22;46889;37.310;13.582;2023-11-19T13:30:42;21.50;99.90
61004;DHT22;46889;37.310;13.582;2023-11-19T13:33:07;21.50;99.90
61004;DHT22;46889;37.310;13.582;2023-11-19T13:35:37;21.30;99.90
61004;DHT22;46889;37.310;13.582;2023-11-19T13:38:06;21.20;99.90
61004;DHT22;46889;37.310;13.582;2023-11-19T13:40:34;21.00;99.90
61004;DHT22;46889;37.310;13.582;2023-11-19T13:43:00;21.10;99.90
61004;DHT22;46889;37.310;13.582;2023-11-19T13:45:26;21.20;99.90
61004;DHT22;46889;37.310;13.582;2023-11-19T13:47:52;21.20;99.90
61004;DHT22;46889;37.310;13.582;2023-11-19T13:50:17;21.20;99.90
61004;DHT22;46889;37.310;13.582;2023-11-19T13:52:44;21.30;99.90
61004;DHT22;46889;37.310;13.582;2023-11-19T13:55:11;21.30;99.90
61004;DHT22;46889;37.310;13.582;2023-11-19T13:57:38;21.30;99.90
61004;DHT22;46889;37.310;13.582;2023-11-19T14:00:05;21.20;99.90
61004;DHT22;46889;37.310;13.582;2023-11-19T14:02:34;21.10;99.90
61004;DHT22;46889;37.310;13.582;2023-11-19T14:05:00;21.00;99.90
61004;DHT22;46889;37.310;13.582;2023-11-19T14:07:26;20.90;99.90
61004;DHT22;46889;37.310;13.582;2023-11-19T14:09:53;20.80;99.90
61004;DHT22;46889;37.310;13.582;2023-11-19T14:12:19;20.90;99.90
61004;DHT22;46889;37.310;13.582;2023-11-19T14:14:45;20.90;99.90
61004;DHT22;46889;37.310;13.582;2023-11-19T14:17:11;20.90;99.90
61004;DHT22;46889;37.310;13.582;2023-11-19T14:19:38;20.90;99.90
61004;DHT22;46889;37.310;13.582;2023-11-19T14:22:04;20.90;99.90
61004;DHT22;46889;37.310;13.582;2023-11-19T14:24:31;21.00;99.90
61004;DHT22;46889;37.310;13.582;2023-11-19T14:26:57;20.90;99.90
61004;DHT22;46889;37.310;13.582;2023-11-19T14:29:27;20.90;99.90
61004;DHT22;46889;37.310;13.582;2023-11-19T14:31:55;20.90;99.90
61004;DHT22;46889;37.310;13.582;2023-11-19T14:34:21;20.90;99.90
61004;DHT22;46889;37.310;13.582;2023-11-19T14:36:47;20.80;99.90
61004;DHT22;46889;37.310;13.582;2023-11-19T14:39:13;20.70;99.90
61004;DHT22;46889;37.310;13.582;2023-11-19T14:41:39;20.50;99.90
61004;DHT22;46889;37.310;13.582;2023-11-19T14:44:05;20.30;99.90
61004;DHT22;46889;37.310;13.582;2023-11-19T14:46:31;20.40;99.90
61004;DHT22;46889;37.310;13.582;2023-11-19T14:48:57;20.50;99.90
61004;DHT22;46889;37.310;13.582;2023-11-19T14:51:22;20.50;99.90
61004;DHT22;46889;37.310;13.582;2023-11-19T14:53:48;20.50;99.90
61004;DHT22;46889;37.310;13.582;2023-11-19T14:56:14;20.40;99.90
61004;DHT22;46889;37.310;13.582;2023-11-19T14:58:40;20.40;99.90
61004;DHT22;46889;37.310;13.582;2023-11-19T15:01:06;20.30;99.90
61004;DHT22;46889;37.310;13.582;2023-11-19T15:03:32;20.20;99.90
61004;DHT22;46889;37.310;13.582;2023-11-19T15:05:58;20.10;99.90
61004;DHT22;46889;37.310;13.582;2023-11-19T15:08:25;20.10;99.90
61004;DHT22;46889;37.310;13.582;2023-11-19T15:10:50;20.10;99.90
61004;DHT22;46889;37.310;13.582;2023-11-19T15:13:16;19.90;99.90
61004;DHT22;46889;37.310;13.582;2023-11-19T15:15:42;19.70;99.90
61004;DHT22;46889;37.310;13.582;2023-11-19T15:18:08;19.50;99.90
61004;DHT22;46889;37.310;13.582;2023-11-19T15:20:35;19.40;99.90
61004;DHT22;46889;37.310;13.582;2023-11-19T15:23:01;19.20;99.90
61004;DHT22;46889;37.310;13.582;2023-11-19T15:25:28;19.10;99.90